sensor_id;sensor_type;location;lat;lon;timestamp;P1;durP1;ratioP1;P2;durP2;ratioP2
6432;SDS011;3249;42.690;23.260;2024-03-23T00:55:12;26.50;;;17.70;;
6432;SDS011;3249;42.690;23.260;2024-03-23T00:57:39;27.53;;;19.40;;
6432;SDS011;3249;42.690;23.260;2024-03-23T01:00:05;32.60;;;18.63;;
6432;SDS011;3249;42.690;23.260;2024-03-23T01:02:32;24.30;;;17.40;;
6432;SDS011;3249;42.690;23.260;2024-03-23T01:04:59;25.03;;;18.10;;
6432;SDS011;3249;42.690;23.260;2024-03-23T01:07:25;25.17;;;17.77;;
6432;SDS011;3249;42.690;23.260;2024-03-23T01:09:52;28.37;;;17.97;;
6432;SDS011;3249;42.690;23.260;2024-03-23T01:12:21;31.20;;;20.13;;
6432;SDS011;3249;42.690;23.260;2024-03-23T01:14:48;33.20;;;18.13;;
6432;SDS011;3249;42.690;23.260;2024-03-23T01:17:14;32.43;;;18.33;;
6432;SDS011;3249;42.690;23.260;2024-03-23T01:19:41;33.93;;;17.43;;
6432;SDS011;3249;42.690;23.260;2024-03-23T01:22:07;22.17;;;16.27;;
6432;SDS011;3249;42.690;23.260;2024-03-23T01:24:35;24.77;;;16.67;;
6432;SDS011;3249;42.690;23.260;2024-03-23T01:27:02;27.70;;;16.77;;
6432;SDS011;3249;42.690;23.260;2024-03-23T01:29:31;28.63;;;18.17;;
6432;SDS011;3249;42.690;23.260;2024-03-23T01:31:58;31.10;;;19.60;;
6432;SDS011;3249;42.690;23.260;2024-03-23T01:34:24;32.57;;;19.40;;
6432;SDS011;3249;42.690;23.260;2024-03-23T01:36:51;25.03;;;17.03;;
6432;SDS011;3249;42.690;23.260;2024-03-23T01:39:18;26.63;;;17.17;;
6432;SDS011;3249;42.690;23.260;2024-03-23T01:41:44;23.60;;;17.33;;
6432;SDS011;3249;42.690;23.260;2024-03-23T01:44:11;20.30;;;15.73;;
6432;SDS011;3249;42.690;23.260;2024-03-23T01:46:40;21.27;;;14.10;;
6432;SDS011;3249;42.690;23.260;2024-03-23T01:49:06;24.57;;;15.90;;
6432;SDS011;3249;42.690;23.260;2024-03-23T01:51:34;23.73;;;15.03;;
6432;SDS011;3249;42.690;23.260;2024-03-23T01:54:02;17.27;;;12.60;;
6432;SDS011;3249;42.690;23.260;2024-03-23T01:56:29;17.53;;;12.73;;
6432;SDS011;3249;42.690;23.260;2024-03-23T01:58:58;17.43;;;13.67;;
6432;SDS011;3249;42.690;23.260;2024-03-23T02:01:24;16.23;;;13.33;;
6432;SDS011;3249;42.690;23.260;2024-03-23T02:03:55;21.50;;;14.00;;
6432;SDS011;3249;42.690;23.260;2024-03-23T02:06:22;18.47;;;12.77;;
6432;SDS011;3249;42.690;23.260;2024-03-23T02:08:50;18.40;;;14.37;;
6432;SDS011;3249;42.690;23.260;2024-03-23T02:11:17;16.17;;;13.20;;
6432;SDS011;3249;42.690;23.260;2024-03-23T02:13:43;21.30;;;13.50;;
6432;SDS011;3249;42.690;23.260;2024-03-23T02:16:10;19.50;;;13.87;;
6432;SDS011;3249;42.690;23.260;2024-03-23T02:18:37;16.77;;;13.43;;
6432;SDS011;3249;42.690;23.260;2024-03-23T02:21:06;16.50;;;14.03;;
6432;SDS011;3249;42.690;23.260;2024-03-23T02:23:35;19.63;;;13.80;;
6432;SDS011;3249;42.690;23.260;2024-03-23T02:26:01;19.73;;;13.47;;
6432;SDS011;3249;42.690;23.260;2024-03-23T02:28:28;18.37;;;14.30;;
6432;SDS011;3249;42.690;23.260;2024-03-23T02:30:54;23.93;;;13.97;;
6432;SDS011;3249;42.690;23.260;2024-03-23T02:33:21;19.10;;;13.87;;
6432;SDS011;3249;42.690;23.260;2024-03-23T02:35:47;15.00;;;13.17;;
6432;SDS011;3249;42.690;23.260;2024-03-23T02:38:14;17.30;;;13.87;;
6432;SDS011;3249;42.690;23.260;2024-03-23T02:40:43;15.03;;;12.37;;
6432;SDS011;3249;42.690;23.260;2024-03-23T02:43:10;17.17;;;13.37;;
6432;SDS011;3249;42.690;23.260;2024-03-23T02:45:37;16.83;;;13.17;;
6432;SDS011;3249;42.690;23.260;2024-03-23T02:48:04;24.27;;;13.83;;
6432;SDS011;3249;42.690;23.260;2024-03-23T02:50:31;19.97;;;13.77;;
6432;SDS011;3249;42.690;23.260;2024-03-23T02:52:57;23.07;;;14.20;;
6432;SDS011;3249;42.690;23.260;2024-03-23T02:55:24;23.50;;;13.60;;
6432;SDS011;3249;42.690;23.260;2024-03-23T02:57:53;17.70;;;13.47;;
6432;SDS011;3249;42.690;23.260;2024-03-23T03:00:19;21.43;;;14.07;;
6432;SDS011;3249;42.690;23.260;2024-03-23T03:02:46;17.80;;;13.97;;
6432;SDS011;3249;42.690;23.260;2024-03-23T03:05:12;19.43;;;14.37;;
6432;SDS011;3249;42.690;23.260;2024-03-23T03:07:39;20.23;;;15.20;;
6432;SDS011;3249;42.690;23.260;2024-03-23T03:10:06;26.70;;;15.07;;
6432;SDS011;3249;42.690;23.260;2024-03-23T03:12:33;22.77;;;13.60;;
6432;SDS011;3249;42.690;23.260;2024-03-23T03:15:02;18.70;;;14.30;;
6432;SDS011;3249;42.690;23.260;2024-03-23T03:43:24;21.27;;;13.87;;
6432;SDS011;3249;42.690;23.260;2024-03-23T03:45:51;20.33;;;13.63;;
6432;SDS011;3249;42.690;23.260;2024-03-23T03:48:18;20.70;;;13.03;;
6432;SDS011;3249;42.690;23.260;2024-03-23T03:50:44;18.60;;;13.80;;
6432;SDS011;3249;42.690;23.260;2024-03-23T03:53:11;24.63;;;14.30;;
6432;SDS011;3249;42.690;23.260;2024-03-23T03:55:37;23.93;;;13.57;;
6432;SDS011;3249;42.690;23.260;2024-03-23T03:58:07;17.67;;;13.10;;
6432;SDS011;3249;42.690;23.260;2024-03-23T04:00:33;20.17;;;14.27;;
6432;SDS011;3249;42.690;23.260;2024-03-23T04:03:00;25.90;;;14.57;;
6432;SDS011;3249;42.690;23.260;2024-03-23T04:05:26;17.90;;;13.30;;
6432;SDS011;3249;42.690;23.260;2024-03-23T04:07:53;21.57;;;14.03;;
6432;SDS011;3249;42.690;23.260;2024-03-23T04:10:19;23.83;;;14.23;;
6432;SDS011;3249;42.690;23.260;2024-03-23T04:12:46;22.20;;;16.10;;
6432;SDS011;3249;42.690;23.260;2024-03-23T04:15:16;21.80;;;13.70;;
6432;SDS011;3249;42.690;23.260;2024-03-23T04:17:43;19.77;;;14.83;;
6432;SDS011;3249;42.690;23.260;2024-03-23T04:20:10;35.60;;;14.67;;
6432;SDS011;3249;42.690;23.260;2024-03-23T04:22:37;30.60;;;15.87;;
6432;SDS011;3249;42.690;23.260;2024-03-23T04:25:04;51.10;;;17.10;;
6432;SDS011;3249;42.690;23.260;2024-03-23T04:27:32;33.77;;;14.87;;
6432;SDS011;3249;42.690;23.260;2024-03-23T04:29:58;27.20;;;15.07;;
6432;SDS011;3249;42.690;23.260;2024-03-23T04:32:28;28.90;;;14.80;;
6432;SDS011;3249;42.690;23.260;2024-03-23T04:34:54;29.33;;;15.20;;
6432;SDS011;3249;42.690;23.260;2024-03-23T04:37:21;29.57;;;17.27;;
6432;SDS011;3249;42.690;23.260;2024-03-23T04:39:48;28.73;;;17.30;;
6432;SDS011;3249;42.690;23.260;2024-03-23T04:42:14;25.83;;;17.60;;
6432;SDS011;3249;42.690;23.260;2024-03-23T04:44:41;27.83;;;16.97;;
6432;SDS011;3249;42.690;23.260;2024-03-23T04:47:08;42.07;;;17.97;;
6432;SDS011;3249;42.690;23.260;2024-03-23T04:49:41;29.30;;;19.03;;
6432;SDS011;3249;42.690;23.260;2024-03-23T04:52:07;30.30;;;16.97;;
6432;SDS011;3249;42.690;23.260;2024-03-23T04:54:34;25.70;;;16.20;;
6432;SDS011;3249;42.690;23.260;2024-03-23T04:57:00;23.87;;;15.43;;
6432;SDS011;3249;42.690;23.260;2024-03-23T04:59:27;24.10;;;17.03;;
6432;SDS011;3249;42.690;23.260;2024-03-23T05:01:53;33.40;;;15.80;;
6432;SDS011;3249;42.690;23.260;2024-03-23T05:04:20;27.40;;;16.43;;
6432;SDS011;3249;42.690;23.260;2024-03-23T05:06:49;25.90;;;15.30;;
6432;SDS011;3249;42.690;23.260;2024-03-23T05:09:15;28.40;;;16.43;;
6432;SDS011;3249;42.690;23.260;2024-03-23T05:11:42;27.10;;;16.40;;
6432;SDS011;3249;42.690;23.260;2024-03-23T05:14:08;31.53;;;17.43;;
6432;SDS011;3249;42.690;23.260;2024-03-23T05:16:35;30.87;;;16.20;;
6432;SDS011;3249;42.690;23.260;2024-03-23T05:19:01;35.47;;;16.30;;
6432;SDS011;3249;42.690;23.260;2024-03-23T05:21:28;30.07;;;17.27;;
6432;SDS011;3249;42.690;23.260;2024-03-23T05:23:57;28.03;;;18.17;;
6432;SDS011;3249;42.690;23.260;2024-03-23T05:26:23;29.07;;;18.30;;
6432;SDS011;3249;42.690;23.260;2024-03-23T05:28:50;25.47;;;17.17;;
6432;SDS011;3249;42.690;23.260;2024-03-23T05:31:22;31.97;;;19.10;;
6432;SDS011;3249;42.690;23.260;2024-03-23T05:33:49;25.50;;;17.37;;
6432;SDS011;3249;42.690;23.260;2024-03-23T05:36:16;30.60;;;19.27;;
6432;SDS011;3249;42.690;23.260;2024-03-23T05:38:43;22.23;;;16.63;;
6432;SDS011;3249;42.690;23.260;2024-03-23T05:41:12;25.97;;;15.00;;
6432;SDS011;3249;42.690;23.260;2024-03-23T05:43:38;27.77;;;17.53;;
6432;SDS011;3249;42.690;23.260;2024-03-23T05:46:05;24.87;;;16.53;;
6432;SDS011;3249;42.690;23.260;2024-03-23T05:48:31;26.47;;;18.97;;
6432;SDS011;3249;42.690;23.260;2024-03-23T05:50:58;28.27;;;19.10;;
6432;SDS011;3249;42.690;23.260;2024-03-23T05:53:24;59.07;;;36.73;;
6432;SDS011;3249;42.690;23.260;2024-03-23T05:55:59;58.73;;;42.80;;
6432;SDS011;3249;42.690;23.260;2024-03-23T05:58:29;30.90;;;23.43;;
6432;SDS011;3249;42.690;23.260;2024-03-23T06:00:57;42.17;;;23.83;;
6432;SDS011;3249;42.690;23.260;2024-03-23T06:03:24;47.10;;;30.80;;
6432;SDS011;3249;42.690;23.260;2024-03-23T06:05:51;46.50;;;33.13;;
6432;SDS011;3249;42.690;23.260;2024-03-23T06:08:18;49.93;;;31.07;;
6432;SDS011;3249;42.690;23.260;2024-03-23T06:10:45;56.07;;;37.97;;
6432;SDS011;3249;42.690;23.260;2024-03-23T06:13:12;64.43;;;37.70;;
6432;SDS011;3249;42.690;23.260;2024-03-23T06:15:41;67.00;;;39.83;;
6432;SDS011;3249;42.690;23.260;2024-03-23T06:18:08;59.60;;;36.93;;
6432;SDS011;3249;42.690;23.260;2024-03-23T06:20:34;47.13;;;32.93;;
6432;SDS011;3249;42.690;23.260;2024-03-23T06:23:01;53.63;;;32.40;;
6432;SDS011;3249;42.690;23.260;2024-03-23T06:25:28;42.77;;;31.13;;
6432;SDS011;3249;42.690;23.260;2024-03-23T06:27:54;46.37;;;31.83;;
6432;SDS011;3249;42.690;23.260;2024-03-23T06:30:21;46.20;;;30.87;;
6432;SDS011;3249;42.690;23.260;2024-03-23T06:32:50;48.23;;;29.17;;
6432;SDS011;3249;42.690;23.260;2024-03-23T06:35:16;39.97;;;24.93;;
6432;SDS011;3249;42.690;23.260;2024-03-23T06:37:42;49.37;;;24.33;;
6432;SDS011;3249;42.690;23.260;2024-03-23T06:40:09;36.73;;;22.53;;
6432;SDS011;3249;42.690;23.260;2024-03-23T06:42:36;34.90;;;21.33;;
6432;SDS011;3249;42.690;23.260;2024-03-23T06:45:03;27.00;;;19.90;;
6432;SDS011;3249;42.690;23.260;2024-03-23T06:47:30;20.27;;;15.30;;
6432;SDS011;3249;42.690;23.260;2024-03-23T06:50:00;21.27;;;15.37;;
6432;SDS011;3249;42.690;23.260;2024-03-23T06:52:29;19.07;;;14.73;;
6432;SDS011;3249;42.690;23.260;2024-03-23T06:54:56;24.80;;;14.27;;
6432;SDS011;3249;42.690;23.260;2024-03-23T06:57:23;18.37;;;13.07;;
6432;SDS011;3249;42.690;23.260;2024-03-23T06:59:50;17.97;;;13.53;;
6432;SDS011;3249;42.690;23.260;2024-03-23T07:02:16;16.80;;;13.53;;
6432;SDS011;3249;42.690;23.260;2024-03-23T07:04:43;21.27;;;13.33;;
6432;SDS011;3249;42.690;23.260;2024-03-23T07:07:13;17.07;;;13.97;;
6432;SDS011;3249;42.690;23.260;2024-03-23T07:09:39;23.67;;;15.60;;
6432;SDS011;3249;42.690;23.260;2024-03-23T07:12:06;21.07;;;15.40;;
6432;SDS011;3249;42.690;23.260;2024-03-23T07:14:33;25.33;;;15.50;;
6432;SDS011;3249;42.690;23.260;2024-03-23T07:17:02;22.00;;;14.90;;
6432;SDS011;3249;42.690;23.260;2024-03-23T07:19:28;20.97;;;14.67;;
6432;SDS011;3249;42.690;23.260;2024-03-23T07:21:55;19.63;;;15.77;;
6432;SDS011;3249;42.690;23.260;2024-03-23T07:24:24;26.00;;;17.90;;
6432;SDS011;3249;42.690;23.260;2024-03-23T07:26:51;23.37;;;15.80;;
6432;SDS011;3249;42.690;23.260;2024-03-23T07:29:18;22.97;;;15.70;;
6432;SDS011;3249;42.690;23.260;2024-03-23T07:31:44;26.63;;;15.33;;
6432;SDS011;3249;42.690;23.260;2024-03-23T07:34:10;23.27;;;18.93;;
6432;SDS011;3249;42.690;23.260;2024-03-23T07:36:37;31.23;;;19.73;;
6432;SDS011;3249;42.690;23.260;2024-03-23T07:39:04;27.40;;;16.63;;
6432;SDS011;3249;42.690;23.260;2024-03-23T07:41:33;26.97;;;17.30;;
6432;SDS011;3249;42.690;23.260;2024-03-23T07:43:59;20.83;;;15.40;;
6432;SDS011;3249;42.690;23.260;2024-03-23T07:46:26;20.40;;;15.10;;
6432;SDS011;3249;42.690;23.260;2024-03-23T07:48:52;21.13;;;15.27;;
6432;SDS011;3249;42.690;23.260;2024-03-23T07:51:20;20.00;;;15.83;;
6432;SDS011;3249;42.690;23.260;2024-03-23T07:53:48;23.13;;;15.70;;
6432;SDS011;3249;42.690;23.260;2024-03-23T07:56:15;21.60;;;14.40;;
6432;SDS011;3249;42.690;23.260;2024-03-23T07:58:44;20.93;;;14.80;;
6432;SDS011;3249;42.690;23.260;2024-03-23T08:01:11;21.43;;;15.30;;
6432;SDS011;3249;42.690;23.260;2024-03-23T08:03:40;23.87;;;16.90;;
6432;SDS011;3249;42.690;23.260;2024-03-23T08:06:08;20.77;;;14.83;;
6432;SDS011;3249;42.690;23.260;2024-03-23T08:08:36;22.97;;;14.63;;
6432;SDS011;3249;42.690;23.260;2024-03-23T08:11:03;20.23;;;15.20;;
6432;SDS011;3249;42.690;23.260;2024-03-23T08:13:30;21.20;;;15.13;;
6432;SDS011;3249;42.690;23.260;2024-03-23T08:16:00;26.27;;;15.60;;
6432;SDS011;3249;42.690;23.260;2024-03-23T08:18:27;22.73;;;15.27;;
6432;SDS011;3249;42.690;23.260;2024-03-23T08:20:57;23.67;;;15.57;;
6432;SDS011;3249;42.690;23.260;2024-03-23T08:23:26;21.47;;;16.77;;
6432;SDS011;3249;42.690;23.260;2024-03-23T08:25:57;29.87;;;19.03;;
6432;SDS011;3249;42.690;23.260;2024-03-23T08:28:23;89.43;;;52.67;;
6432;SDS011;3249;42.690;23.260;2024-03-23T08:30:50;38.37;;;28.50;;
6432;SDS011;3249;42.690;23.260;2024-03-23T08:33:20;31.03;;;21.23;;
6432;SDS011;3249;42.690;23.260;2024-03-23T08:35:52;25.03;;;21.13;;
6432;SDS011;3249;42.690;23.260;2024-03-23T08:38:20;28.03;;;20.60;;
6432;SDS011;3249;42.690;23.260;2024-03-23T08:40:46;27.40;;;17.77;;
6432;SDS011;3249;42.690;23.260;2024-03-23T08:43:13;31.23;;;19.50;;
6432;SDS011;3249;42.690;23.260;2024-03-23T08:45:40;23.03;;;17.13;;
6432;SDS011;3249;42.690;23.260;2024-03-23T08:48:07;22.13;;;15.67;;
6432;SDS011;3249;42.690;23.260;2024-03-23T08:50:36;23.30;;;15.37;;
6432;SDS011;3249;42.690;23.260;2024-03-23T08:53:02;25.87;;;15.53;;
6432;SDS011;3249;42.690;23.260;2024-03-23T08:55:29;20.63;;;15.10;;
6432;SDS011;3249;42.690;23.260;2024-03-23T08:57:55;24.37;;;15.63;;
6432;SDS011;3249;42.690;23.260;2024-03-23T09:00:22;21.10;;;13.93;;
6432;SDS011;3249;42.690;23.260;2024-03-23T09:02:48;28.47;;;18.43;;
6432;SDS011;3249;42.690;23.260;2024-03-23T09:05:18;26.40;;;17.90;;
6432;SDS011;3249;42.690;23.260;2024-03-23T09:07:56;22.90;;;15.27;;
6432;SDS011;3249;42.690;23.260;2024-03-23T09:10:22;22.87;;;15.00;;
6432;SDS011;3249;42.690;23.260;2024-03-23T09:12:49;26.87;;;15.40;;
6432;SDS011;3249;42.690;23.260;2024-03-23T09:15:15;22.10;;;16.20;;
6432;SDS011;3249;42.690;23.260;2024-03-23T09:17:42;20.90;;;15.73;;
6432;SDS011;3249;42.690;23.260;2024-03-23T09:20:09;29.57;;;18.93;;
6432;SDS011;3249;42.690;23.260;2024-03-23T09:22:36;25.30;;;18.50;;
6432;SDS011;3249;42.690;23.260;2024-03-23T09:25:06;23.50;;;17.87;;
6432;SDS011;3249;42.690;23.260;2024-03-23T09:27:33;22.60;;;16.43;;
6432;SDS011;3249;42.690;23.260;2024-03-23T09:30:00;29.80;;;17.00;;
6432;SDS011;3249;42.690;23.260;2024-03-23T09:32:27;22.70;;;15.90;;
6432;SDS011;3249;42.690;23.260;2024-03-23T09:34:53;24.30;;;17.07;;
6432;SDS011;3249;42.690;23.260;2024-03-23T09:37:19;18.30;;;15.40;;
6432;SDS011;3249;42.690;23.260;2024-03-23T09:39:46;21.57;;;15.63;;
6432;SDS011;3249;42.690;23.260;2024-03-23T09:42:15;20.70;;;15.80;;
6432;SDS011;3249;42.690;23.260;2024-03-23T09:44:42;22.43;;;16.20;;
6432;SDS011;3249;42.690;23.260;2024-03-23T09:47:10;20.43;;;15.30;;
6432;SDS011;3249;42.690;23.260;2024-03-23T09:49:37;23.83;;;15.90;;
6432;SDS011;3249;42.690;23.260;2024-03-23T09:52:05;27.00;;;16.77;;
6432;SDS011;3249;42.690;23.260;2024-03-23T09:54:31;22.47;;;17.73;;
6432;SDS011;3249;42.690;23.260;2024-03-23T09:56:58;29.47;;;18.47;;
6432;SDS011;3249;42.690;23.260;2024-03-23T09:59:27;35.80;;;18.23;;
6432;SDS011;3249;42.690;23.260;2024-03-23T10:01:54;21.00;;;15.70;;
6432;SDS011;3249;42.690;23.260;2024-03-23T10:07:12;18.70;;;14.77;;
6432;SDS011;3249;42.690;23.260;2024-03-23T10:09:39;23.03;;;16.10;;
6432;SDS011;3249;42.690;23.260;2024-03-23T10:12:10;20.97;;;13.77;;
6432;SDS011;3249;42.690;23.260;2024-03-23T10:14:40;20.80;;;13.60;;
6432;SDS011;3249;42.690;23.260;2024-03-23T10:17:14;22.53;;;14.83;;
6432;SDS011;3249;42.690;23.260;2024-03-23T10:19:43;18.57;;;13.47;;
6432;SDS011;3249;42.690;23.260;2024-03-23T10:22:13;16.50;;;12.53;;
6432;SDS011;3249;42.690;23.260;2024-03-23T10:24:41;24.03;;;15.40;;
6432;SDS011;3249;42.690;23.260;2024-03-23T10:27:07;21.97;;;16.27;;
6432;SDS011;3249;42.690;23.260;2024-03-23T10:29:34;21.17;;;15.17;;
6432;SDS011;3249;42.690;23.260;2024-03-23T10:32:10;17.87;;;14.80;;
6432;SDS011;3249;42.690;23.260;2024-03-23T10:34:37;24.30;;;14.90;;
6432;SDS011;3249;42.690;23.260;2024-03-23T10:37:04;18.40;;;14.33;;
6432;SDS011;3249;42.690;23.260;2024-03-23T10:39:32;19.90;;;12.50;;
6432;SDS011;3249;42.690;23.260;2024-03-23T10:42:00;22.20;;;14.73;;
6432;SDS011;3249;42.690;23.260;2024-03-23T10:44:28;14.80;;;12.27;;
6432;SDS011;3249;42.690;23.260;2024-03-23T10:46:55;17.27;;;12.83;;
6432;SDS011;3249;42.690;23.260;2024-03-23T10:49:25;18.37;;;12.87;;
6432;SDS011;3249;42.690;23.260;2024-03-23T10:51:52;15.07;;;10.90;;
6432;SDS011;3249;42.690;23.260;2024-03-23T10:54:19;15.17;;;11.63;;
6432;SDS011;3249;42.690;23.260;2024-03-23T10:56:47;17.57;;;11.20;;
6432;SDS011;3249;42.690;23.260;2024-03-23T10:59:16;14.57;;;12.50;;
6432;SDS011;3249;42.690;23.260;2024-03-23T11:01:54;13.27;;;11.83;;
6432;SDS011;3249;42.690;23.260;2024-03-23T11:04:33;16.80;;;11.10;;
6432;SDS011;3249;42.690;23.260;2024-03-23T11:07:02;12.37;;;10.60;;
6432;SDS011;3249;42.690;23.260;2024-03-23T11:12:17;15.20;;;12.97;;
6432;SDS011;3249;42.690;23.260;2024-03-23T11:14:52;11.53;;;9.30;;
6432;SDS011;3249;42.690;23.260;2024-03-23T11:17:21;10.87;;;9.73;;
6432;SDS011;3249;42.690;23.260;2024-03-23T11:19:57;9.40;;;8.43;;
6432;SDS011;3249;42.690;23.260;2024-03-23T11:22:38;9.07;;;7.90;;
6432;SDS011;3249;42.690;23.260;2024-03-23T11:25:18;7.43;;;6.80;;
6432;SDS011;3249;42.690;23.260;2024-03-23T11:27:46;9.10;;;7.50;;
6432;SDS011;3249;42.690;23.260;2024-03-23T11:30:18;16.60;;;7.67;;
6432;SDS011;3249;42.690;23.260;2024-03-23T11:32:46;11.83;;;7.77;;
6432;SDS011;3249;42.690;23.260;2024-03-23T11:38:05;10.10;;;7.97;;
6432;SDS011;3249;42.690;23.260;2024-03-23T11:40:32;13.37;;;8.63;;
6432;SDS011;3249;42.690;23.260;2024-03-23T11:43:00;15.77;;;7.87;;
6432;SDS011;3249;42.690;23.260;2024-03-23T11:45:27;10.13;;;7.83;;
6432;SDS011;3249;42.690;23.260;2024-03-23T11:48:07;9.23;;;7.13;;
6432;SDS011;3249;42.690;23.260;2024-03-23T11:50:39;10.93;;;7.93;;
6432;SDS011;3249;42.690;23.260;2024-03-23T11:53:07;8.00;;;7.13;;
6432;SDS011;3249;42.690;23.260;2024-03-23T11:55:45;10.77;;;7.03;;
6432;SDS011;3249;42.690;23.260;2024-03-23T11:58:12;12.17;;;8.00;;
6432;SDS011;3249;42.690;23.260;2024-03-23T12:00:40;9.10;;;6.57;;
6432;SDS011;3249;42.690;23.260;2024-03-23T12:03:06;6.10;;;5.50;;
6432;SDS011;3249;42.690;23.260;2024-03-23T12:05:33;5.17;;;4.73;;
6432;SDS011;3249;42.690;23.260;2024-03-23T12:10:48;4.50;;;4.20;;
6432;SDS011;3249;42.690;23.260;2024-03-23T12:13:19;4.57;;;4.17;;
6432;SDS011;3249;42.690;23.260;2024-03-23T12:15:47;4.27;;;4.00;;
6432;SDS011;3249;42.690;23.260;2024-03-23T12:18:15;6.13;;;3.87;;
6432;SDS011;3249;42.690;23.260;2024-03-23T12:20:42;5.13;;;3.97;;
6432;SDS011;3249;42.690;23.260;2024-03-23T12:23:09;4.63;;;3.50;;
6432;SDS011;3249;42.690;23.260;2024-03-23T12:25:40;3.87;;;3.60;;
6432;SDS011;3249;42.690;23.260;2024-03-23T12:28:07;5.47;;;3.90;;
6432;SDS011;3249;42.690;23.260;2024-03-23T12:30:34;3.70;;;3.40;;
6432;SDS011;3249;42.690;23.260;2024-03-23T12:33:01;4.10;;;3.70;;
6432;SDS011;3249;42.690;23.260;2024-03-23T12:35:29;5.57;;;3.60;;
6432;SDS011;3249;42.690;23.260;2024-03-23T12:37:55;3.67;;;3.37;;
6432;SDS011;3249;42.690;23.260;2024-03-23T12:40:22;7.10;;;4.33;;
6432;SDS011;3249;42.690;23.260;2024-03-23T12:42:51;3.70;;;3.40;;
6432;SDS011;3249;42.690;23.260;2024-03-23T12:45:17;3.70;;;3.50;;
6432;SDS011;3249;42.690;23.260;2024-03-23T12:47:44;3.70;;;3.50;;
6432;SDS011;3249;42.690;23.260;2024-03-23T12:50:10;3.93;;;3.27;;
6432;SDS011;3249;42.690;23.260;2024-03-23T12:52:37;3.87;;;3.67;;
6432;SDS011;3249;42.690;23.260;2024-03-23T12:55:04;3.93;;;3.63;;
6432;SDS011;3249;42.690;23.260;2024-03-23T12:57:31;3.80;;;3.60;;
6432;SDS011;3249;42.690;23.260;2024-03-23T13:00:03;3.50;;;3.30;;
6432;SDS011;3249;42.690;23.260;2024-03-23T13:02:30;3.40;;;3.20;;
6432;SDS011;3249;42.690;23.260;2024-03-23T13:04:57;4.33;;;3.60;;
6432;SDS011;3249;42.690;23.260;2024-03-23T13:07:23;3.70;;;3.50;;
6432;SDS011;3249;42.690;23.260;2024-03-23T13:09:50;7.27;;;4.07;;
6432;SDS011;3249;42.690;23.260;2024-03-23T13:12:17;7.23;;;3.63;;
6432;SDS011;3249;42.690;23.260;2024-03-23T13:14:44;3.43;;;3.23;;
6432;SDS011;3249;42.690;23.260;2024-03-23T13:17:13;3.90;;;3.40;;
6432;SDS011;3249;42.690;23.260;2024-03-23T13:19:40;3.47;;;3.27;;
6432;SDS011;3249;42.690;23.260;2024-03-23T13:22:07;3.63;;;3.47;;
6432;SDS011;3249;42.690;23.260;2024-03-23T13:24:34;6.80;;;3.30;;
6432;SDS011;3249;42.690;23.260;2024-03-23T13:27:00;3.50;;;3.30;;
6432;SDS011;3249;42.690;23.260;2024-03-23T13:29:27;4.00;;;3.70;;
6432;SDS011;3249;42.690;23.260;2024-03-23T13:31:53;4.17;;;3.57;;
6432;SDS011;3249;42.690;23.260;2024-03-23T13:34:22;3.67;;;3.40;;
6432;SDS011;3249;42.690;23.260;2024-03-23T13:36:49;4.37;;;4.10;;
6432;SDS011;3249;42.690;23.260;2024-03-23T13:39:15;3.60;;;3.40;;
6432;SDS011;3249;42.690;23.260;2024-03-23T13:41:42;5.10;;;3.63;;
6432;SDS011;3249;42.690;23.260;2024-03-23T13:44:10;4.03;;;3.53;;
6432;SDS011;3249;42.690;23.260;2024-03-23T13:46:37;3.63;;;3.43;;
6432;SDS011;3249;42.690;23.260;2024-03-23T13:49:04;4.67;;;4.27;;
6432;SDS011;3249;42.690;23.260;2024-03-23T13:51:33;4.40;;;4.10;;
6432;SDS011;3249;42.690;23.260;2024-03-23T13:54:00;4.07;;;3.87;;
6432;SDS011;3249;42.690;23.260;2024-03-23T13:56:27;3.97;;;3.67;;
6432;SDS011;3249;42.690;23.260;2024-03-23T13:58:54;3.77;;;3.50;;
6432;SDS011;3249;42.690;23.260;2024-03-23T14:01:21;4.50;;;4.20;;
6432;SDS011;3249;42.690;23.260;2024-03-23T14:03:48;4.77;;;4.43;;
6432;SDS011;3249;42.690;23.260;2024-03-23T14:06:14;5.00;;;4.70;;
6432;SDS011;3249;42.690;23.260;2024-03-23T14:08:44;4.77;;;4.50;;
6432;SDS011;3249;42.690;23.260;2024-03-23T14:11:10;11.03;;;9.77;;
6432;SDS011;3249;42.690;23.260;2024-03-23T14:13:37;4.57;;;4.30;;
6432;SDS011;3249;42.690;23.260;2024-03-23T14:16:04;4.90;;;4.50;;
6432;SDS011;3249;42.690;23.260;2024-03-23T14:18:31;4.63;;;4.23;;
6432;SDS011;3249;42.690;23.260;2024-03-23T14:20:58;6.97;;;4.40;;
6432;SDS011;3249;42.690;23.260;2024-03-23T14:23:26;5.23;;;4.83;;
6432;SDS011;3249;42.690;23.260;2024-03-23T14:25:56;5.30;;;4.90;;
6432;SDS011;3249;42.690;23.260;2024-03-23T14:28:22;4.57;;;4.27;;
6432;SDS011;3249;42.690;23.260;2024-03-23T14:30:49;7.23;;;5.03;;
6432;SDS011;3249;42.690;23.260;2024-03-23T14:33:15;7.70;;;5.00;;
6432;SDS011;3249;42.690;23.260;2024-03-23T14:35:42;4.70;;;4.40;;
6432;SDS011;3249;42.690;23.260;2024-03-23T14:38:08;5.60;;;4.97;;
6432;SDS011;3249;42.690;23.260;2024-03-23T14:40:35;4.73;;;4.40;;
6432;SDS011;3249;42.690;23.260;2024-03-23T14:43:04;5.17;;;4.77;;
6432;SDS011;3249;42.690;23.260;2024-03-23T14:45:31;5.37;;;4.97;;
6432;SDS011;3249;42.690;23.260;2024-03-23T14:48:00;7.63;;;4.90;;
6432;SDS011;3249;42.690;23.260;2024-03-23T14:50:27;5.17;;;4.83;;
6432;SDS011;3249;42.690;23.260;2024-03-23T14:52:53;5.90;;;5.40;;
6432;SDS011;3249;42.690;23.260;2024-03-23T14:55:20;5.40;;;5.00;;
6432;SDS011;3249;42.690;23.260;2024-03-23T14:57:52;4.57;;;4.37;;
6432;SDS011;3249;42.690;23.260;2024-03-23T15:01:05;5.13;;;4.80;;
6432;SDS011;3249;42.690;23.260;2024-03-23T15:03:33;6.00;;;5.40;;
6432;SDS011;3249;42.690;23.260;2024-03-23T15:05:59;6.53;;;5.37;;
6432;SDS011;3249;42.690;23.260;2024-03-23T15:08:26;5.50;;;4.77;;
6432;SDS011;3249;42.690;23.260;2024-03-23T15:10:53;6.27;;;5.53;;
6432;SDS011;3249;42.690;23.260;2024-03-23T15:13:20;5.53;;;5.17;;
6432;SDS011;3249;42.690;23.260;2024-03-23T15:15:49;5.60;;;5.20;;
6432;SDS011;3249;42.690;23.260;2024-03-23T15:18:18;9.10;;;6.07;;
6432;SDS011;3249;42.690;23.260;2024-03-23T15:20:51;7.13;;;5.70;;
6432;SDS011;3249;42.690;23.260;2024-03-23T15:23:19;5.50;;;5.10;;
6432;SDS011;3249;42.690;23.260;2024-03-23T15:25:46;5.63;;;5.20;;
6432;SDS011;3249;42.690;23.260;2024-03-23T15:28:13;9.40;;;4.83;;
6432;SDS011;3249;42.690;23.260;2024-03-23T15:30:40;5.43;;;5.03;;
6432;SDS011;3249;42.690;23.260;2024-03-23T15:33:06;5.73;;;4.97;;
6432;SDS011;3249;42.690;23.260;2024-03-23T15:35:35;5.83;;;5.40;;
6432;SDS011;3249;42.690;23.260;2024-03-23T15:38:02;6.07;;;5.33;;
6432;SDS011;3249;42.690;23.260;2024-03-23T15:40:31;5.07;;;4.70;;
6432;SDS011;3249;42.690;23.260;2024-03-23T15:43:01;6.00;;;5.53;;
6432;SDS011;3249;42.690;23.260;2024-03-23T15:45:28;11.10;;;8.00;;
6432;SDS011;3249;42.690;23.260;2024-03-23T15:48:00;5.80;;;5.37;;
6432;SDS011;3249;42.690;23.260;2024-03-23T15:50:30;6.13;;;5.50;;
6432;SDS011;3249;42.690;23.260;2024-03-23T15:52:59;4.87;;;4.57;;
6432;SDS011;3249;42.690;23.260;2024-03-23T15:55:25;5.80;;;5.17;;
6432;SDS011;3249;42.690;23.260;2024-03-23T15:57:52;6.53;;;5.93;;
6432;SDS011;3249;42.690;23.260;2024-03-23T16:00:21;5.80;;;5.30;;
6432;SDS011;3249;42.690;23.260;2024-03-23T16:02:50;5.70;;;5.13;;
6432;SDS011;3249;42.690;23.260;2024-03-23T16:05:16;8.67;;;5.27;;
6432;SDS011;3249;42.690;23.260;2024-03-23T16:07:43;5.67;;;5.10;;
6432;SDS011;3249;42.690;23.260;2024-03-23T16:10:12;6.40;;;5.90;;
6432;SDS011;3249;42.690;23.260;2024-03-23T16:12:39;7.30;;;5.80;;
6432;SDS011;3249;42.690;23.260;2024-03-23T16:15:06;6.27;;;5.73;;
6432;SDS011;3249;42.690;23.260;2024-03-23T16:17:33;6.80;;;5.53;;